sensor_id;sensor_type;location;lat;lon;timestamp;temperature;humidity
48728;DHT22;34527;45.618;5.130;2023-05-10T00:01:54;12.30;99.90
48728;DHT22;34527;45.618;5.130;2023-05-10T00:04:19;12.30;99.90
48728;DHT22;34527;45.618;5.130;2023-05-10T00:06:45;12.30;99.90
48728;DHT22;34527;45.618;5.130;2023-05-10T00:09:11;12.30;99.90
48728;DHT22;34527;45.618;5.130;2023-05-10T00:11:37;12.20;99.90
48728;DHT22;34527;45.618;5.130;2023-05-10T00:14:02;12.10;99.90
48728;DHT22;34527;45.618;5.130;2023-05-10T00:16:28;12.10;99.90
48728;DHT22;34527;45.618;5.130;2023-05-10T00:18:54;12.10;99.90
48728;DHT22;34527;45.618;5.130;2023-05-10T00:21:20;12.10;99.90
48728;DHT22;34527;45.618;5.130;2023-05-10T00:23:45;12.00;99.90
48728;DHT22;34527;45.618;5.130;2023-05-10T00:26:11;12.00;99.90
48728;DHT22;34527;45.618;5.130;2023-05-10T00:28:37;12.00;99.90
48728;DHT22;34527;45.618;5.130;2023-05-10T00:31:03;12.00;99.90
48728;DHT22;34527;45.618;5.130;2023-05-10T00:33:28;12.00;99.90
48728;DHT22;34527;45.618;5.130;2023-05-10T00:35:54;12.00;99.90
48728;DHT22;34527;45.618;5.130;2023-05-10T00:38:19;12.00;99.90
48728;DHT22;34527;45.618;5.130;2023-05-10T00:40:45;11.90;99.90
48728;DHT22;34527;45.618;5.130;2023-05-10T00:43:11;11.90;99.90
48728;DHT22;34527;45.618;5.130;2023-05-10T00:45:37;12.00;99.90
48728;DHT22;34527;45.618;5.130;2023-05-10T00:48:04;12.00;99.90
48728;DHT22;34527;45.618;5.130;2023-05-10T00:50:32;12.00;99.90
48728;DHT22;34527;45.618;5.130;2023-05-10T00:53:01;12.00;99.90
48728;DHT22;34527;45.618;5.130;2023-05-10T00:55:27;12.00;99.90
48728;DHT22;34527;45.618;5.130;2023-05-10T00:57:54;12.00;99.90
48728;DHT22;34527;45.618;5.130;2023-05-10T01:00:20;12.00;99.90
48728;DHT22;34527;45.618;5.130;2023-05-10T01:02:46;12.00;99.90
48728;DHT22;34527;45.618;5.130;2023-05-10T01:05:12;12.00;99.90
48728;DHT22;34527;45.618;5.130;2023-05-10T01:07:38;12.00;99.90
48728;DHT22;34527;45.618;5.130;2023-05-10T01:10:06;12.00;99.90
48728;DHT22;34527;45.618;5.130;2023-05-10T01:12:32;12.00;99.90
48728;DHT22;34527;45.618;5.130;2023-05-10T01:14:58;12.00;99.90
48728;DHT22;34527;45.618;5.130;2023-05-10T01:17:25;12.00;99.90
48728;DHT22;34527;45.618;5.130;2023-05-10T01:19:51;12.00;99.90
48728;DHT22;34527;45.618;5.130;2023-05-10T01:26:07;11.90;99.90
48728;DHT22;34527;45.618;5.130;2023-05-10T01:28:58;11.90;99.90
48728;DHT22;34527;45.618;5.130;2023-05-10T01:38:04;12.00;99.90
48728;DHT22;34527;45.618;5.130;2023-05-10T01:40:37;12.00;99.90
48728;DHT22;34527;45.618;5.130;2023-05-10T01:43:10;12.00;99.90
48728;DHT22;34527;45.618;5.130;2023-05-10T01:45:50;12.10;99.90
48728;DHT22;34527;45.618;5.130;2023-05-10T01:48:18;12.10;99.90
48728;DHT22;34527;45.618;5.130;2023-05-10T01:50:46;12.10;99.90
48728;DHT22;34527;45.618;5.130;2023-05-10T01:53:17;12.10;99.90
48728;DHT22;34527;45.618;5.130;2023-05-10T01:55:50;12.10;99.90
48728;DHT22;34527;45.618;5.130;2023-05-10T01:58:21;12.20;99.90
48728;DHT22;34527;45.618;5.130;2023-05-10T02:00:49;12.20;99.90
48728;DHT22;34527;45.618;5.130;2023-05-10T02:03:16;12.20;99.90
48728;DHT22;34527;45.618;5.130;2023-05-10T02:05:43;12.20;99.90
48728;DHT22;34527;45.618;5.130;2023-05-10T02:08:11;12.20;99.90
48728;DHT22;34527;45.618;5.130;2023-05-10T02:10:37;12.20;99.90
48728;DHT22;34527;45.618;5.130;2023-05-10T02:13:05;12.20;99.90
48728;DHT22;34527;45.618;5.130;2023-05-10T02:15:32;12.30;99.90
48728;DHT22;34527;45.618;5.130;2023-05-10T02:18:00;12.40;99.90
48728;DHT22;34527;45.618;5.130;2023-05-10T02:20:28;12.30;99.90
48728;DHT22;34527;45.618;5.130;2023-05-10T02:22:56;12.40;99.90
48728;DHT22;34527;45.618;5.130;2023-05-10T02:25:23;12.40;99.90
48728;DHT22;34527;45.618;5.130;2023-05-10T02:27:52;12.40;99.90
48728;DHT22;34527;45.618;5.130;2023-05-10T02:30:19;12.40;99.90
48728;DHT22;34527;45.618;5.130;2023-05-10T02:32:46;12.40;99.90
48728;DHT22;34527;45.618;5.130;2023-05-10T02:35:13;12.40;99.90
48728;DHT22;34527;45.618;5.130;2023-05-10T02:37:41;12.40;99.90
48728;DHT22;34527;45.618;5.130;2023-05-10T02:40:07;12.40;99.90
48728;DHT22;34527;45.618;5.130;2023-05-10T02:42:36;12.50;99.90
48728;DHT22;34527;45.618;5.130;2023-05-10T02:45:07;12.50;99.90
48728;DHT22;34527;45.618;5.130;2023-05-10T02:47:33;12.50;99.90
48728;DHT22;34527;45.618;5.130;2023-05-10T02:49:59;12.50;99.90
48728;DHT22;34527;45.618;5.130;2023-05-10T02:52:28;12.50;99.90
48728;DHT22;34527;45.618;5.130;2023-05-10T02:54:56;12.50;99.90
48728;DHT22;34527;45.618;5.130;2023-05-10T02:57:27;12.50;99.90
48728;DHT22;34527;45.618;5.130;2023-05-10T02:59:54;12.60;99.90
48728;DHT22;34527;45.618;5.130;2023-05-10T03:02:20;12.50;99.90
48728;DHT22;34527;45.618;5.130;2023-05-10T03:04:46;12.60;99.90
48728;DHT22;34527;45.618;5.130;2023-05-10T03:07:12;12.50;99.90
48728;DHT22;34527;45.618;5.130;2023-05-10T03:09:38;12.60;99.90
48728;DHT22;34527;45.618;5.130;2023-05-10T03:15:05;12.50;99.90
48728;DHT22;34527;45.618;5.130;2023-05-10T03:18:28;12.50;99.90
48728;DHT22;34527;45.618;5.130;2023-05-10T03:20:35;12.50;99.90
48728;DHT22;34527;45.618;5.130;2023-05-10T03:23:11;12.50;99.90
48728;DHT22;34527;45.618;5.130;2023-05-10T03:25:37;12.40;99.90
48728;DHT22;34527;45.618;5.130;2023-05-10T03:28:05;12.50;99.90
48728;DHT22;34527;45.618;5.130;2023-05-10T03:30:31;12.50;99.90
48728;DHT22;34527;45.618;5.130;2023-05-10T03:32:57;12.40;99.90
48728;DHT22;34527;45.618;5.130;2023-05-10T03:35:23;12.40;99.90
48728;DHT22;34527;45.618;5.130;2023-05-10T03:37:49;12.40;99.90
48728;DHT22;34527;45.618;5.130;2023-05-10T03:40:15;12.40;99.90
48728;DHT22;34527;45.618;5.130;2023-05-10T03:42:41;12.40;99.90
48728;DHT22;34527;45.618;5.130;2023-05-10T03:45:07;12.40;99.90
48728;DHT22;34527;45.618;5.130;2023-05-10T03:47:33;12.40;99.90
48728;DHT22;34527;45.618;5.130;2023-05-10T03:49:58;12.40;99.90
48728;DHT22;34527;45.618;5.130;2023-05-10T03:52:24;12.40;99.90
48728;DHT22;34527;45.618;5.130;2023-05-10T03:54:50;12.40;99.90
48728;DHT22;34527;45.618;5.130;2023-05-10T03:57:16;12.50;99.90
48728;DHT22;34527;45.618;5.130;2023-05-10T03:59:41;12.40;99.90
48728;DHT22;34527;45.618;5.130;2023-05-10T04:02:07;12.50;99.90
48728;DHT22;34527;45.618;5.130;2023-05-10T04:04:32;12.40;99.90
48728;DHT22;34527;45.618;5.130;2023-05-10T04:06:58;12.40;99.90
48728;DHT22;34527;45.618;5.130;2023-05-10T04:09:24;12.40;99.90
48728;DHT22;34527;45.618;5.130;2023-05-10T04:11:49;12.50;99.90
48728;DHT22;34527;45.618;5.130;2023-05-10T04:14:15;12.50;99.90
48728;DHT22;34527;45.618;5.130;2023-05-10T04:16:40;12.40;99.90
48728;DHT22;34527;45.618;5.130;2023-05-10T04:19:06;12.40;99.90
48728;DHT22;34527;45.618;5.130;2023-05-10T04:21:32;12.40;99.90
48728;DHT22;34527;45.618;5.130;2023-05-10T04:23:57;12.30;99.90
48728;DHT22;34527;45.618;5.130;2023-05-10T04:26:23;12.30;99.90
48728;DHT22;34527;45.618;5.130;2023-05-10T04:28:50;12.20;99.90
48728;DHT22;34527;45.618;5.130;2023-05-10T04:31:16;12.20;99.90
48728;DHT22;34527;45.618;5.130;2023-05-10T04:33:42;12.20;99.90
48728;DHT22;34527;45.618;5.130;2023-05-10T04:36:08;12.30;99.90
48728;DHT22;34527;45.618;5.130;2023-05-10T04:38:33;12.10;99.90
48728;DHT22;34527;45.618;5.130;2023-05-10T04:41:07;12.20;99.90
48728;DHT22;34527;45.618;5.130;2023-05-10T04:43:32;12.10;99.90
48728;DHT22;34527;45.618;5.130;2023-05-10T04:45:58;12.10;99.90
48728;DHT22;34527;45.618;5.130;2023-05-10T04:48:24;12.10;99.90
48728;DHT22;34527;45.618;5.130;2023-05-10T04:50:49;12.00;99.90
48728;DHT22;34527;45.618;5.130;2023-05-10T04:53:15;12.00;99.90
48728;DHT22;34527;45.618;5.130;2023-05-10T04:55:40;11.90;99.90
48728;DHT22;34527;45.618;5.130;2023-05-10T04:58:06;11.90;99.90
48728;DHT22;34527;45.618;5.130;2023-05-10T05:00:33;11.90;99.90
48728;DHT22;34527;45.618;5.130;2023-05-10T05:02:59;11.80;99.90
48728;DHT22;34527;45.618;5.130;2023-05-10T05:05:24;11.80;99.90
48728;DHT22;34527;45.618;5.130;2023-05-10T05:07:50;11.80;99.90
48728;DHT22;34527;45.618;5.130;2023-05-10T05:10:16;11.80;99.90
48728;DHT22;34527;45.618;5.130;2023-05-10T05:12:42;11.80;99.90
48728;DHT22;34527;45.618;5.130;2023-05-10T05:15:07;11.90;99.90
48728;DHT22;34527;45.618;5.130;2023-05-10T05:17:35;11.90;99.90
48728;DHT22;34527;45.618;5.130;2023-05-10T05:20:01;11.90;99.90
48728;DHT22;34527;45.618;5.130;2023-05-10T05:22:26;11.90;99.90
48728;DHT22;34527;45.618;5.130;2023-05-10T05:24:57;11.80;99.90
48728;DHT22;34527;45.618;5.130;2023-05-10T05:27:24;11.90;99.90
48728;DHT22;34527;45.618;5.130;2023-05-10T05:29:57;11.90;99.90
48728;DHT22;34527;45.618;5.130;2023-05-10T05:32:24;11.90;99.90
48728;DHT22;34527;45.618;5.130;2023-05-10T05:34:50;11.90;99.90
48728;DHT22;34527;45.618;5.130;2023-05-10T05:37:16;11.90;99.90
48728;DHT22;34527;45.618;5.130;2023-05-10T05:39:42;11.90;99.90
48728;DHT22;34527;45.618;5.130;2023-05-10T05:42:09;12.00;99.90
48728;DHT22;34527;45.618;5.130;2023-05-10T05:44:35;11.90;99.90
48728;DHT22;34527;45.618;5.130;2023-05-10T05:47:00;12.00;99.90
48728;DHT22;34527;45.618;5.130;2023-05-10T05:49:26;12.00;99.90
48728;DHT22;34527;45.618;5.130;2023-05-10T05:51:52;12.00;99.90
48728;DHT22;34527;45.618;5.130;2023-05-10T05:54:17;12.20;99.90
48728;DHT22;34527;45.618;5.130;2023-05-10T05:56:43;12.10;99.90
48728;DHT22;34527;45.618;5.130;2023-05-10T05:59:10;12.20;99.90
48728;DHT22;34527;45.618;5.130;2023-05-10T06:01:35;12.20;99.90
48728;DHT22;34527;45.618;5.130;2023-05-10T06:04:01;12.30;99.90
48728;DHT22;34527;45.618;5.130;2023-05-10T06:06:27;12.30;99.90
48728;DHT22;34527;45.618;5.130;2023-05-10T06:08:53;12.40;99.90
48728;DHT22;34527;45.618;5.130;2023-05-10T06:11:18;12.50;99.90
48728;DHT22;34527;45.618;5.130;2023-05-10T06:13:44;12.60;99.90
48728;DHT22;34527;45.618;5.130;2023-05-10T06:16:10;12.70;99.90
48728;DHT22;34527;45.618;5.130;2023-05-10T06:18:35;12.80;99.90
48728;DHT22;34527;45.618;5.130;2023-05-10T06:21:01;12.80;99.90
48728;DHT22;34527;45.618;5.130;2023-05-10T06:23:27;12.80;99.90
48728;DHT22;34527;45.618;5.130;2023-05-10T06:25:52;12.90;99.90
48728;DHT22;34527;45.618;5.130;2023-05-10T06:28:18;13.00;99.90
48728;DHT22;34527;45.618;5.130;2023-05-10T06:30:43;13.10;99.90
48728;DHT22;34527;45.618;5.130;2023-05-10T06:33:09;13.10;99.90
48728;DHT22;34527;45.618;5.130;2023-05-10T06:35:35;13.20;99.90
48728;DHT22;34527;45.618;5.130;2023-05-10T06:38:02;13.20;99.90
48728;DHT22;34527;45.618;5.130;2023-05-10T06:40:27;13.20;99.90
48728;DHT22;34527;45.618;5.130;2023-05-10T06:42:53;13.10;99.90
48728;DHT22;34527;45.618;5.130;2023-05-10T06:45:19;13.20;99.90
48728;DHT22;34527;45.618;5.130;2023-05-10T06:47:44;13.20;99.90
48728;DHT22;34527;45.618;5.130;2023-05-10T06:50:11;13.20;99.90
48728;DHT22;34527;45.618;5.130;2023-05-10T06:52:37;13.20;99.90
48728;DHT22;34527;45.618;5.130;2023-05-10T06:55:04;13.40;99.90
48728;DHT22;34527;45.618;5.130;2023-05-10T06:57:30;13.40;99.90
48728;DHT22;34527;45.618;5.130;2023-05-10T06:59:56;13.50;99.90
48728;DHT22;34527;45.618;5.130;2023-05-10T07:02:22;13.40;99.90
48728;DHT22;34527;45.618;5.130;2023-05-10T07:04:48;13.50;99.90
48728;DHT22;34527;45.618;5.130;2023-05-10T07:07:14;13.50;99.90
48728;DHT22;34527;45.618;5.130;2023-05-10T07:09:40;13.40;99.90
48728;DHT22;34527;45.618;5.130;2023-05-10T07:12:05;13.40;99.90
48728;DHT22;34527;45.618;5.130;2023-05-10T07:14:31;13.60;99.90
48728;DHT22;34527;45.618;5.130;2023-05-10T07:16:57;13.70;99.90
48728;DHT22;34527;45.618;5.130;2023-05-10T07:19:22;13.80;99.90
48728;DHT22;34527;45.618;5.130;2023-05-10T07:21:48;14.00;99.90
48728;DHT22;34527;45.618;5.130;2023-05-10T07:24:14;14.00;99.90
48728;DHT22;34527;45.618;5.130;2023-05-10T07:26:39;13.90;99.90
48728;DHT22;34527;45.618;5.130;2023-05-10T07:29:05;13.80;99.90
48728;DHT22;34527;45.618;5.130;2023-05-10T07:31:30;14.00;99.90
48728;DHT22;34527;45.618;5.130;2023-05-10T07:33:56;13.90;99.90
48728;DHT22;34527;45.618;5.130;2023-05-10T07:36:22;13.90;99.90
48728;DHT22;34527;45.618;5.130;2023-05-10T07:38:47;14.00;99.90
48728;DHT22;34527;45.618;5.130;2023-05-10T07:41:14;14.00;99.90
48728;DHT22;34527;45.618;5.130;2023-05-10T07:43:40;13.90;99.90
48728;DHT22;34527;45.618;5.130;2023-05-10T07:46:05;14.00;99.90
48728;DHT22;34527;45.618;5.130;2023-05-10T07:48:31;13.90;99.90
48728;DHT22;34527;45.618;5.130;2023-05-10T07:50:57;14.20;99.90
48728;DHT22;34527;45.618;5.130;2023-05-10T07:53:22;14.10;99.90
48728;DHT22;34527;45.618;5.130;2023-05-10T07:55:52;14.30;99.90
48728;DHT22;34527;45.618;5.130;2023-05-10T07:58:19;14.30;99.90
48728;DHT22;34527;45.618;5.130;2023-05-10T08:00:45;14.30;99.90
48728;DHT22;34527;45.618;5.130;2023-05-10T08:03:11;14.30;99.90
48728;DHT22;34527;45.618;5.130;2023-05-10T08:05:37;14.40;99.90
48728;DHT22;34527;45.618;5.130;2023-05-10T08:08:02;14.30;99.90
48728;DHT22;34527;45.618;5.130;2023-05-10T08:10:28;14.30;99.90
48728;DHT22;34527;45.618;5.130;2023-05-10T08:12:53;14.30;99.90
48728;DHT22;34527;45.618;5.130;2023-05-10T08:15:19;14.50;99.90
48728;DHT22;34527;45.618;5.130;2023-05-10T08:17:45;14.50;99.90
48728;DHT22;34527;45.618;5.130;2023-05-10T08:20:11;14.40;99.90
48728;DHT22;34527;45.618;5.130;2023-05-10T08:22:38;14.20;99.90
48728;DHT22;34527;45.618;5.130;2023-05-10T08:25:04;14.30;99.90
48728;DHT22;34527;45.618;5.130;2023-05-10T08:27:29;14.40;99.90
48728;DHT22;34527;45.618;5.130;2023-05-10T08:29:55;14.40;99.90
48728;DHT22;34527;45.618;5.130;2023-05-10T08:32:20;14.30;99.90
48728;DHT22;34527;45.618;5.130;2023-05-10T08:34:46;14.40;99.90
48728;DHT22;34527;45.618;5.130;2023-05-10T08:37:12;14.40;99.90
48728;DHT22;34527;45.618;5.130;2023-05-10T08:39:38;14.50;99.90
48728;DHT22;34527;45.618;5.130;2023-05-10T08:42:04;14.70;99.90
48728;DHT22;34527;45.618;5.130;2023-05-10T08:44:34;14.60;99.90
48728;DHT22;34527;45.618;5.130;2023-05-10T08:47:04;14.60;99.90
48728;DHT22;34527;45.618;5.130;2023-05-10T08:49:31;14.60;99.90
48728;DHT22;34527;45.618;5.130;2023-05-10T08:51:57;14.40;99.90
48728;DHT22;34527;45.618;5.130;2023-05-10T08:54:24;14.30;99.90
48728;DHT22;34527;45.618;5.130;2023-05-10T08:56:50;14.20;99.90
48728;DHT22;34527;45.618;5.130;2023-05-10T08:59:16;14.20;99.90
48728;DHT22;34527;45.618;5.130;2023-05-10T09:01:43;14.10;99.90
48728;DHT22;34527;45.618;5.130;2023-05-10T09:04:10;13.90;99.90
48728;DHT22;34527;45.618;5.130;2023-05-10T09:06:36;13.80;99.90
48728;DHT22;34527;45.618;5.130;2023-05-10T09:09:02;13.70;99.90
48728;DHT22;34527;45.618;5.130;2023-05-10T09:11:28;13.50;99.90
48728;DHT22;34527;45.618;5.130;2023-05-10T09:13:55;13.50;99.90
48728;DHT22;34527;45.618;5.130;2023-05-10T09:16:22;13.50;99.90
48728;DHT22;34527;45.618;5.130;2023-05-10T09:18:48;13.50;99.90
48728;DHT22;34527;45.618;5.130;2023-05-10T09:21:14;13.50;99.90
48728;DHT22;34527;45.618;5.130;2023-05-10T09:23:45;13.50;99.90
48728;DHT22;34527;45.618;5.130;2023-05-10T09:26:12;13.60;99.90
48728;DHT22;34527;45.618;5.130;2023-05-10T09:28:54;13.80;99.90
48728;DHT22;34527;45.618;5.130;2023-05-10T09:31:20;13.80;99.90
48728;DHT22;34527;45.618;5.130;2023-05-10T09:33:47;13.90;99.90
48728;DHT22;34527;45.618;5.130;2023-05-10T09:36:13;13.90;99.90
48728;DHT22;34527;45.618;5.130;2023-05-10T09:38:50;13.90;99.90
48728;DHT22;34527;45.618;5.130;2023-05-10T09:41:18;13.90;99.90
48728;DHT22;34527;45.618;5.130;2023-05-10T09:43:44;13.90;99.90
48728;DHT22;34527;45.618;5.130;2023-05-10T09:46:10;14.00;99.90
48728;DHT22;34527;45.618;5.130;2023-05-10T09:48:42;14.00;99.90
48728;DHT22;34527;45.618;5.130;2023-05-10T09:51:08;14.10;99.90
48728;DHT22;34527;45.618;5.130;2023-05-10T09:53:34;14.00;99.90
48728;DHT22;34527;45.618;5.130;2023-05-10T09:55:59;14.00;99.90
48728;DHT22;34527;45.618;5.130;2023-05-10T09:58:25;13.90;99.90
48728;DHT22;34527;45.618;5.130;2023-05-10T10:00:51;13.80;99.90
48728;DHT22;34527;45.618;5.130;2023-05-10T10:03:19;13.80;99.90
48728;DHT22;34527;45.618;5.130;2023-05-10T10:05:54;13.70;99.90
48728;DHT22;34527;45.618;5.130;2023-05-10T10:08:21;13.60;99.90
48728;DHT22;34527;45.618;5.130;2023-05-10T10:10:47;13.70;99.90
48728;DHT22;34527;45.618;5.130;2023-05-10T10:13:13;13.50;99.90
48728;DHT22;34527;45.618;5.130;2023-05-10T10:15:39;13.40;99.90
48728;DHT22;34527;45.618;5.130;2023-05-10T10:18:05;13.50;99.90
48728;DHT22;34527;45.618;5.130;2023-05-10T10:20:32;13.60;99.90
48728;DHT22;34527;45.618;5.130;2023-05-10T10:22:57;13.60;99.90
48728;DHT22;34527;45.618;5.130;2023-05-10T10:25:23;13.60;99.90
48728;DHT22;34527;45.618;5.130;2023-05-10T10:30:39;13.80;99.90
48728;DHT22;34527;45.618;5.130;2023-05-10T10:33:30;13.70;99.90
48728;DHT22;34527;45.618;5.130;2023-05-10T10:36:00;13.90;99.90
48728;DHT22;34527;45.618;5.130;2023-05-10T10:41:34;14.10;99.90
48728;DHT22;34527;45.618;5.130;2023-05-10T10:44:22;14.30;99.90
48728;DHT22;34527;45.618;5.130;2023-05-10T10:47:04;14.30;99.90
48728;DHT22;34527;45.618;5.130;2023-05-10T10:49:51;14.50;99.90
48728;DHT22;34527;45.618;5.130;2023-05-10T10:55:09;14.60;99.90
48728;DHT22;34527;45.618;5.130;2023-05-10T11:00:31;14.80;99.90
48728;DHT22;34527;45.618;5.130;2023-05-10T11:03:08;14.70;99.90
48728;DHT22;34527;45.618;5.130;2023-05-10T11:05:42;14.70;99.90
48728;DHT22;34527;45.618;5.130;2023-05-10T11:10:35;14.70;99.90
48728;DHT22;34527;45.618;5.130;2023-05-10T11:13:10;14.60;99.90
48728;DHT22;34527;45.618;5.130;2023-05-10T11:15:38;14.50;99.90
48728;DHT22;34527;45.618;5.130;2023-05-10T11:18:17;14.60;99.90
48728;DHT22;34527;45.618;5.130;2023-05-10T11:20:44;14.50;99.90
48728;DHT22;34527;45.618;5.130;2023-05-10T11:23:13;14.40;99.90
48728;DHT22;34527;45.618;5.130;2023-05-10T11:25:42;14.40;99.90
48728;DHT22;34527;45.618;5.130;2023-05-10T11:28:13;14.40;99.90
48728;DHT22;34527;45.618;5.130;2023-05-10T11:30:41;14.50;99.90
48728;DHT22;34527;45.618;5.130;2023-05-10T11:33:07;14.50;99.90
48728;DHT22;34527;45.618;5.130;2023-05-10T11:35:38;14.50;99.90
48728;DHT22;34527;45.618;5.130;2023-05-10T11:38:11;14.60;99.90
48728;DHT22;34527;45.618;5.130;2023-05-10T11:40:38;14.70;99.90
48728;DHT22;34527;45.618;5.130;2023-05-10T11:43:04;14.80;99.90
48728;DHT22;34527;45.618;5.130;2023-05-10T11:45:34;14.80;99.90
48728;DHT22;34527;45.618;5.130;2023-05-10T11:48:00;14.90;99.90
48728;DHT22;34527;45.618;5.130;2023-05-10T11:50:27;14.80;99.90
48728;DHT22;34527;45.618;5.130;2023-05-10T11:52:54;14.80;99.90
48728;DHT22;34527;45.618;5.130;2023-05-10T11:55:20;14.90;99.90
48728;DHT22;34527;45.618;5.130;2023-05-10T11:57:46;15.00;99.90
48728;DHT22;34527;45.618;5.130;2023-05-10T12:00:13;14.90;99.90
48728;DHT22;34527;45.618;5.130;2023-05-10T12:02:39;15.00;99.90
48728;DHT22;34527;45.618;5.130;2023-05-10T12:05:05;15.00;99.90
48728;DHT22;34527;45.618;5.130;2023-05-10T12:07:31;15.00;99.90
48728;DHT22;34527;45.618;5.130;2023-05-10T12:10:13;15.00;99.90
48728;DHT22;34527;45.618;5.130;2023-05-10T12:12:46;15.00;99.90
48728;DHT22;34527;45.618;5.130;2023-05-10T12:15:22;14.90;99.90
48728;DHT22;34527;45.618;5.130;2023-05-10T12:17:48;14.90;99.90
48728;DHT22;34527;45.618;5.130;2023-05-10T12:20:22;14.90;99.90
48728;DHT22;34527;45.618;5.130;2023-05-10T12:22:52;14.90;99.90
48728;DHT22;34527;45.618;5.130;2023-05-10T12:25:19;14.90;99.90
48728;DHT22;34527;45.618;5.130;2023-05-10T12:30:23;15.00;99.90
48728;DHT22;34527;45.618;5.130;2023-05-10T12:32:49;15.40;99.90
48728;DHT22;34527;45.618;5.130;2023-05-10T12:35:15;15.50;99.90
48728;DHT22;34527;45.618;5.130;2023-05-10T12:37:43;15.60;99.90
48728;DHT22;34527;45.618;5.130;2023-05-10T12:40:10;15.70;99.90
48728;DHT22;34527;45.618;5.130;2023-05-10T12:42:39;15.70;99.90
48728;DHT22;34527;45.618;5.130;2023-05-10T12:45:06;15.90;99.90
48728;DHT22;34527;45.618;5.130;2023-05-10T12:47:32;15.60;99.90
48728;DHT22;34527;45.618;5.130;2023-05-10T12:49:59;15.50;99.90
48728;DHT22;34527;45.618;5.130;2023-05-10T12:52:25;15.50;99.90
48728;DHT22;34527;45.618;5.130;2023-05-10T12:54:52;15.50;99.90
48728;DHT22;34527;45.618;5.130;2023-05-10T12:57:18;15.50;99.90
48728;DHT22;34527;45.618;5.130;2023-05-10T12:59:44;15.50;99.90
48728;DHT22;34527;45.618;5.130;2023-05-10T13:02:09;15.60;99.90
48728;DHT22;34527;45.618;5.130;2023-05-10T13:04:35;15.70;99.90
48728;DHT22;34527;45.618;5.130;2023-05-10T13:07:07;15.80;99.90
48728;DHT22;34527;45.618;5.130;2023-05-10T13:09:33;15.70;99.90
48728;DHT22;34527;45.618;5.130;2023-05-10T13:11:58;15.80;99.90
48728;DHT22;34527;45.618;5.130;2023-05-10T13:14:24;15.80;99.90
48728;DHT22;34527;45.618;5.130;2023-05-10T13:16:50;15.80;99.90
48728;DHT22;34527;45.618;5.130;2023-05-10T13:19:16;15.70;99.90
48728;DHT22;34527;45.618;5.130;2023-05-10T13:21:42;15.60;99.90
48728;DHT22;34527;45.618;5.130;2023-05-10T13:24:09;15.70;99.90
48728;DHT22;34527;45.618;5.130;2023-05-10T13:26:36;15.80;99.90
48728;DHT22;34527;45.618;5.130;2023-05-10T13:29:02;15.90;99.90
48728;DHT22;34527;45.618;5.130;2023-05-10T13:31:28;15.90;99.90
48728;DHT22;34527;45.618;5.130;2023-05-10T13:33:53;15.90;99.90
48728;DHT22;34527;45.618;5.130;2023-05-10T13:36:19;15.70;99.90
48728;DHT22;34527;45.618;5.130;2023-05-10T13:38:44;15.80;99.90
48728;DHT22;34527;45.618;5.130;2023-05-10T13:41:10;15.90;99.90
48728;DHT22;34527;45.618;5.130;2023-05-10T13:43:36;15.90;99.90
48728;DHT22;34527;45.618;5.130;2023-05-10T13:46:02;15.90;99.90
48728;DHT22;34527;45.618;5.130;2023-05-10T13:48:28;16.00;99.90
48728;DHT22;34527;45.618;5.130;2023-05-10T13:50:53;16.20;99.90
48728;DHT22;34527;45.618;5.130;2023-05-10T13:53:19;16.40;99.90
48728;DHT22;34527;45.618;5.130;2023-05-10T13:55:45;16.80;99.90
48728;DHT22;34527;45.618;5.130;2023-05-10T13:58:10;16.60;99.90
48728;DHT22;34527;45.618;5.130;2023-05-10T14:00:36;16.90;99.90
48728;DHT22;34527;45.618;5.130;2023-05-10T14:03:02;16.60;99.90
48728;DHT22;34527;45.618;5.130;2023-05-10T14:05:27;16.80;99.90
48728;DHT22;34527;45.618;5.130;2023-05-10T14:07:53;16.80;99.90
48728;DHT22;34527;45.618;5.130;2023-05-10T14:10:19;16.70;99.90
48728;DHT22;34527;45.618;5.130;2023-05-10T14:12:45;17.10;99.90
48728;DHT22;34527;45.618;5.130;2023-05-10T14:15:11;16.80;99.90
48728;DHT22;34527;45.618;5.130;2023-05-10T14:17:37;16.70;99.90
48728;DHT22;34527;45.618;5.130;2023-05-10T14:20:02;16.90;99.90
48728;DHT22;34527;45.618;5.130;2023-05-10T14:22:29;16.80;99.90
48728;DHT22;34527;45.618;5.130;2023-05-10T14:24:55;16.50;99.90
48728;DHT22;34527;45.618;5.130;2023-05-10T14:27:20;16.50;99.90
48728;DHT22;34527;45.618;5.130;2023-05-10T14:29:47;16.40;99.90
48728;DHT22;34527;45.618;5.130;2023-05-10T14:32:13;16.20;99.90
48728;DHT22;34527;45.618;5.130;2023-05-10T14:34:38;16.10;99.90
48728;DHT22;34527;45.618;5.130;2023-05-10T14:37:04;16.00;99.90
48728;DHT22;34527;45.618;5.130;2023-05-10T14:39:30;15.90;99.90
48728;DHT22;34527;45.618;5.130;2023-05-10T14:41:56;15.70;99.90
48728;DHT22;34527;45.618;5.130;2023-05-10T14:44:21;15.70;99.90
48728;DHT22;34527;45.618;5.130;2023-05-10T14:46:47;15.70;99.90
48728;DHT22;34527;45.618;5.130;2023-05-10T14:49:14;15.80;99.90
48728;DHT22;34527;45.618;5.130;2023-05-10T14:51:39;16.10;99.90
48728;DHT22;34527;45.618;5.130;2023-05-10T14:54:05;16.20;99.90
48728;DHT22;34527;45.618;5.130;2023-05-10T14:56:32;16.30;99.90
48728;DHT22;34527;45.618;5.130;2023-05-10T14:58:57;16.20;99.90
48728;DHT22;34527;45.618;5.130;2023-05-10T15:01:23;16.10;99.90
48728;DHT22;34527;45.618;5.130;2023-05-10T15:03:48;15.90;99.90
48728;DHT22;34527;45.618;5.130;2023-05-10T15:06:14;15.80;99.90
48728;DHT22;34527;45.618;5.130;2023-05-10T15:08:43;15.70;99.90
48728;DHT22;34527;45.618;5.130;2023-05-10T15:11:09;15.70;99.90
48728;DHT22;34527;45.618;5.130;2023-05-10T15:13:34;15.60;99.90
48728;DHT22;34527;45.618;5.130;2023-05-10T15:16:00;15.60;99.90
48728;DHT22;34527;45.618;5.130;2023-05-10T15:18:26;15.60;99.90
48728;DHT22;34527;45.618;5.130;2023-05-10T15:20:51;15.60;99.90
48728;DHT22;34527;45.618;5.130;2023-05-10T15:23:17;15.70;99.90
48728;DHT22;34527;45.618;5.130;2023-05-10T15:25:43;15.80;99.90
48728;DHT22;34527;45.618;5.130;2023-05-10T15:28:08;15.80;99.90
48728;DHT22;34527;45.618;5.130;2023-05-10T15:30:34;15.80;99.90
48728;DHT22;34527;45.618;5.130;2023-05-10T15:32:59;15.90;99.90
48728;DHT22;34527;45.618;5.130;2023-05-10T15:35:26;15.90;99.90
48728;DHT22;34527;45.618;5.130;2023-05-10T15:37:52;15.70;99.90
48728;DHT22;34527;45.618;5.130;2023-05-10T15:40:17;15.70;99.90
48728;DHT22;34527;45.618;5.130;2023-05-10T15:42:43;15.50;99.90
48728;DHT22;34527;45.618;5.130;2023-05-10T15:45:10;15.50;99.90
48728;DHT22;34527;45.618;5.130;2023-05-10T15:47:36;15.70;99.90
48728;DHT22;34527;45.618;5.130;2023-05-10T15:50:01;15.60;99.90
48728;DHT22;34527;45.618;5.130;2023-05-10T15:52:28;15.60;99.90
48728;DHT22;34527;45.618;5.130;2023-05-10T15:54:53;15.60;99.90
48728;DHT22;34527;45.618;5.130;2023-05-10T15:57:19;15.50;99.90
48728;DHT22;34527;45.618;5.130;2023-05-10T15:59:45;15.60;99.90